sensor_id;sensor_type;location;lat;lon;timestamp;pressure;altitude;pressure_sealevel;temperature;humidity
56042;BME280;48756;41.374;2.066;2024-02-21T00:01:35;102137.00;;;13.46;75.39
56042;BME280;48756;41.374;2.066;2024-02-21T00:04:00;102138.75;;;13.37;75.62
56042;BME280;48756;41.374;2.066;2024-02-21T00:06:25;102145.69;;;13.30;75.83
56042;BME280;48756;41.374;2.066;2024-02-21T00:08:51;102144.81;;;13.33;75.42
56042;BME280;48756;41.374;2.066;2024-02-21T00:11:16;102133.47;;;13.26;75.68
56042;BME280;48756;41.374;2.066;2024-02-21T00:13:42;102129.09;;;13.22;76.39
56042;BME280;48756;41.374;2.066;2024-02-21T00:16:07;102132.59;;;13.18;75.75
56042;BME280;48756;41.374;2.066;2024-02-21T00:18:32;102130.84;;;13.26;77.24
56042;BME280;48756;41.374;2.066;2024-02-21T00:20:58;102127.34;;;13.18;77.72
56042;BME280;48756;41.374;2.066;2024-02-21T00:23:23;102129.06;;;13.16;76.95
56042;BME280;48756;41.374;2.066;2024-02-21T00:25:49;102122.09;;;13.16;77.74
56042;BME280;48756;41.374;2.066;2024-02-21T00:28:14;102123.84;;;13.13;77.35
56042;BME280;48756;41.374;2.066;2024-02-21T00:30:40;102119.44;;;13.09;77.96
56042;BME280;48756;41.374;2.066;2024-02-21T00:33:05;102115.94;;;13.11;77.69
56042;BME280;48756;41.374;2.066;2024-02-21T00:35:31;102116.81;;;13.09;76.97
56042;BME280;48756;41.374;2.066;2024-02-21T00:37:58;102117.69;;;13.05;77.45
56042;BME280;48756;41.374;2.066;2024-02-21T00:40:24;102108.97;;;13.09;77.03
56042;BME280;48756;41.374;2.066;2024-02-21T00:42:52;102104.59;;;13.08;77.68
56042;BME280;48756;41.374;2.066;2024-02-21T00:45:17;102103.72;;;12.92;76.64
56042;BME280;48756;41.374;2.066;2024-02-21T00:47:42;102105.47;;;12.95;78.18
56042;BME280;48756;41.374;2.066;2024-02-21T00:50:10;102106.28;;;12.77;78.70
56042;BME280;48756;41.374;2.066;2024-02-21T00:52:38;102101.94;;;12.83;77.78
56042;BME280;48756;41.374;2.066;2024-02-21T00:55:06;102093.25;;;12.95;78.45
56042;BME280;48756;41.374;2.066;2024-02-21T00:57:31;102093.19;;;12.81;78.40
56042;BME280;48756;41.374;2.066;2024-02-21T00:59:57;102088.84;;;12.83;78.60
56042;BME280;48756;41.374;2.066;2024-02-21T01:02:22;102093.19;;;12.68;78.66
56042;BME280;48756;41.374;2.066;2024-02-21T01:04:48;102083.59;;;12.77;78.89
56042;BME280;48756;41.374;2.066;2024-02-21T01:07:13;102082.72;;;12.72;79.36
56042;BME280;48756;41.374;2.066;2024-02-21T01:09:38;102093.19;;;12.71;80.24
56042;BME280;48756;41.374;2.066;2024-02-21T01:12:06;102091.44;;;12.71;78.86
56042;BME280;48756;41.374;2.066;2024-02-21T01:14:31;102085.28;;;12.66;79.01
56042;BME280;48756;41.374;2.066;2024-02-21T01:16:57;102087.09;;;12.69;78.72
56042;BME280;48756;41.374;2.066;2024-02-21T01:19:22;102079.16;;;12.53;78.90
56042;BME280;48756;41.374;2.066;2024-02-21T01:21:47;102083.50;;;12.47;80.76
56042;BME280;48756;41.374;2.066;2024-02-21T01:24:13;102083.50;;;12.50;79.75
56042;BME280;48756;41.374;2.066;2024-02-21T01:26:40;102076.53;;;12.49;80.12
56042;BME280;48756;41.374;2.066;2024-02-21T01:29:05;102087.00;;;12.52;80.01
56042;BME280;48756;41.374;2.066;2024-02-21T01:31:31;102083.50;;;12.47;79.92
56042;BME280;48756;41.374;2.066;2024-02-21T01:33:56;102073.06;;;12.53;78.94
56042;BME280;48756;41.374;2.066;2024-02-21T01:36:24;102069.59;;;12.58;79.12
56042;BME280;48756;41.374;2.066;2024-02-21T01:38:49;102077.44;;;12.62;78.72
56042;BME280;48756;41.374;2.066;2024-02-21T01:41:14;102073.09;;;12.62;79.40
56042;BME280;48756;41.374;2.066;2024-02-21T01:43:41;102077.50;;;12.69;80.10
56042;BME280;48756;41.374;2.066;2024-02-21T01:46:06;102075.75;;;12.70;79.80
56042;BME280;48756;41.374;2.066;2024-02-21T01:48:32;102073.06;;;12.56;79.27
56042;BME280;48756;41.374;2.066;2024-02-21T01:50:58;102072.09;;;12.28;82.34
56042;BME280;48756;41.374;2.066;2024-02-21T01:53:34;102072.97;;;12.32;80.31
56042;BME280;48756;41.374;2.066;2024-02-21T01:56:00;102071.22;;;12.32;80.14
56042;BME280;48756;41.374;2.066;2024-02-21T01:58:26;102064.25;;;12.26;79.83
56042;BME280;48756;41.374;2.066;2024-02-21T02:00:54;102067.66;;;12.13;80.21
56042;BME280;48756;41.374;2.066;2024-02-21T02:03:21;102068.63;;;12.31;80.45
56042;BME280;48756;41.374;2.066;2024-02-21T02:05:47;102060.72;;;12.21;80.48
56042;BME280;48756;41.374;2.066;2024-02-21T02:08:13;102061.56;;;12.22;81.67
56042;BME280;48756;41.374;2.066;2024-02-21T02:10:41;102061.56;;;12.19;81.27
56042;BME280;48756;41.374;2.066;2024-02-21T02:13:07;102067.66;;;12.15;81.77
56042;BME280;48756;41.374;2.066;2024-02-21T02:15:42;102060.66;;;12.08;81.23
56042;BME280;48756;41.374;2.066;2024-02-21T02:18:08;102047.56;;;12.02;80.98
56042;BME280;48756;41.374;2.066;2024-02-21T02:20:33;102044.09;;;12.07;80.61
56042;BME280;48756;41.374;2.066;2024-02-21T02:22:59;102045.75;;;11.91;80.46
56042;BME280;48756;41.374;2.066;2024-02-21T02:25:26;102044.91;;;11.95;81.68
56042;BME280;48756;41.374;2.066;2024-02-21T02:27:51;102049.25;;;11.95;80.85
56042;BME280;48756;41.374;2.066;2024-02-21T02:30:17;102039.63;;;11.89;82.87
56042;BME280;48756;41.374;2.066;2024-02-21T02:32:45;102040.47;;;11.79;82.20
56042;BME280;48756;41.374;2.066;2024-02-21T02:35:14;102031.84;;;11.97;81.27
56042;BME280;48756;41.374;2.066;2024-02-21T02:37:48;102029.19;;;11.91;83.53
56042;BME280;48756;41.374;2.066;2024-02-21T02:40:14;102027.31;;;11.73;83.95
56042;BME280;48756;41.374;2.066;2024-02-21T02:42:40;102026.53;;;11.82;83.17
56042;BME280;48756;41.374;2.066;2024-02-21T02:45:05;102032.69;;;11.90;83.44
56042;BME280;48756;41.374;2.066;2024-02-21T02:47:30;102037.09;;;12.00;82.30
56042;BME280;48756;41.374;2.066;2024-02-21T02:49:56;102034.50;;;12.00;82.60
56042;BME280;48756;41.374;2.066;2024-02-21T02:52:21;102034.53;;;12.09;83.82
56042;BME280;48756;41.374;2.066;2024-02-21T02:54:46;102022.38;;;12.17;84.04
56042;BME280;48756;41.374;2.066;2024-02-21T02:57:16;102020.63;;;12.19;86.38
56042;BME280;48756;41.374;2.066;2024-02-21T02:59:42;102012.88;;;12.38;86.59
56042;BME280;48756;41.374;2.066;2024-02-21T03:02:07;102007.69;;;12.51;86.37
56042;BME280;48756;41.374;2.066;2024-02-21T03:04:33;101992.88;;;12.58;86.21
56042;BME280;48756;41.374;2.066;2024-02-21T03:06:58;101992.88;;;12.56;85.41
56042;BME280;48756;41.374;2.066;2024-02-21T03:09:23;101992.03;;;12.64;86.16
56042;BME280;48756;41.374;2.066;2024-02-21T03:11:49;101993.78;;;12.63;86.51
56042;BME280;48756;41.374;2.066;2024-02-21T03:14:14;101994.63;;;12.59;86.76
56042;BME280;48756;41.374;2.066;2024-02-21T03:16:39;101992.00;;;12.53;86.64
56042;BME280;48756;41.374;2.066;2024-02-21T03:19:05;101993.72;;;12.42;86.09
56042;BME280;48756;41.374;2.066;2024-02-21T03:21:30;101992.84;;;12.44;87.20
56042;BME280;48756;41.374;2.066;2024-02-21T03:23:55;101980.69;;;12.66;86.88
56042;BME280;48756;41.374;2.066;2024-02-21T03:26:21;101991.19;;;12.69;87.44
56042;BME280;48756;41.374;2.066;2024-02-21T03:28:46;101983.34;;;12.72;86.44
56042;BME280;48756;41.374;2.066;2024-02-21T03:31:11;101978.13;;;12.92;84.88
56042;BME280;48756;41.374;2.066;2024-02-21T03:33:39;101972.88;;;12.86;85.99
56042;BME280;48756;41.374;2.066;2024-02-21T03:36:04;101968.47;;;12.53;86.59
56042;BME280;48756;41.374;2.066;2024-02-21T03:38:29;101965.81;;;12.30;85.97
56042;BME280;48756;41.374;2.066;2024-02-21T03:40:55;101969.13;;;11.94;86.44
56042;BME280;48756;41.374;2.066;2024-02-21T03:43:20;101970.88;;;11.93;86.12
56042;BME280;48756;41.374;2.066;2024-02-21T03:45:45;101956.06;;;11.94;87.32
56042;BME280;48756;41.374;2.066;2024-02-21T03:48:11;101958.56;;;11.76;87.00
56042;BME280;48756;41.374;2.066;2024-02-21T03:50:36;101964.63;;;11.69;86.64
56042;BME280;48756;41.374;2.066;2024-02-21T03:53:02;101965.53;;;11.77;85.78
56042;BME280;48756;41.374;2.066;2024-02-21T03:55:27;101970.81;;;11.80;85.84
56042;BME280;48756;41.374;2.066;2024-02-21T03:57:53;101968.06;;;11.61;85.33
56042;BME280;48756;41.374;2.066;2024-02-21T04:00:20;101968.06;;;11.57;87.57
56042;BME280;48756;41.374;2.066;2024-02-21T04:02:46;101973.28;;;11.60;86.53
56042;BME280;48756;41.374;2.066;2024-02-21T04:05:11;101975.06;;;11.67;86.87
56042;BME280;48756;41.374;2.066;2024-02-21T04:07:37;101973.31;;;11.64;87.46
56042;BME280;48756;41.374;2.066;2024-02-21T04:10:05;101964.56;;;11.56;88.40
56042;BME280;48756;41.374;2.066;2024-02-21T04:12:30;101968.97;;;11.66;87.57
56042;BME280;48756;41.374;2.066;2024-02-21T04:14:59;101960.00;;;11.26;89.95
56042;BME280;48756;41.374;2.066;2024-02-21T04:17:24;101958.38;;;11.42;89.80
56042;BME280;48756;41.374;2.066;2024-02-21T04:19:50;101969.72;;;11.50;88.13
56042;BME280;48756;41.374;2.066;2024-02-21T04:22:15;101971.53;;;11.57;89.03
56042;BME280;48756;41.374;2.066;2024-02-21T04:24:40;101976.81;;;11.66;88.10
56042;BME280;48756;41.374;2.066;2024-02-21T04:27:05;101972.59;;;11.85;87.43
56042;BME280;48756;41.374;2.066;2024-02-21T04:29:31;101975.19;;;11.82;87.95
56042;BME280;48756;41.374;2.066;2024-02-21T04:31:56;101983.03;;;11.87;86.71
56042;BME280;48756;41.374;2.066;2024-02-21T04:34:22;101984.75;;;11.82;87.58
56042;BME280;48756;41.374;2.066;2024-02-21T04:36:47;101979.53;;;11.82;87.61
56042;BME280;48756;41.374;2.066;2024-02-21T04:39:12;101988.28;;;11.88;88.31
56042;BME280;48756;41.374;2.066;2024-02-21T04:41:38;101992.59;;;11.83;86.28
56042;BME280;48756;41.374;2.066;2024-02-21T04:44:05;101993.50;;;11.90;86.45
56042;BME280;48756;41.374;2.066;2024-02-21T04:46:31;101994.41;;;11.96;87.43
56042;BME280;48756;41.374;2.066;2024-02-21T04:48:56;101992.63;;;11.92;86.49
56042;BME280;48756;41.374;2.066;2024-02-21T04:51:21;101988.28;;;11.91;86.82
56042;BME280;48756;41.374;2.066;2024-02-21T04:53:47;101992.63;;;11.88;87.83
56042;BME280;48756;41.374;2.066;2024-02-21T04:56:12;101999.66;;;12.00;87.54
56042;BME280;48756;41.374;2.066;2024-02-21T04:58:38;102000.50;;;11.99;85.46
56042;BME280;48756;41.374;2.066;2024-02-21T05:01:04;102011.81;;;11.96;85.79
56042;BME280;48756;41.374;2.066;2024-02-21T05:03:29;102012.28;;;11.39;88.31
56042;BME280;48756;41.374;2.066;2024-02-21T05:05:57;102016.00;;;11.74;88.02
56042;BME280;48756;41.374;2.066;2024-02-21T05:08:23;102030.03;;;11.84;86.42
56042;BME280;48756;41.374;2.066;2024-02-21T05:10:49;102023.06;;;11.84;87.36
56042;BME280;48756;41.374;2.066;2024-02-21T05:13:14;102025.53;;;11.68;86.16
56042;BME280;48756;41.374;2.066;2024-02-21T05:15:40;102025.72;;;11.89;86.46
56042;BME280;48756;41.374;2.066;2024-02-21T05:18:06;102023.06;;;11.84;84.97
56042;BME280;48756;41.374;2.066;2024-02-21T05:20:31;102022.22;;;11.85;85.42
56042;BME280;48756;41.374;2.066;2024-02-21T05:22:56;102017.59;;;11.51;86.86
56042;BME280;48756;41.374;2.066;2024-02-21T05:25:21;102021.22;;;11.73;85.38
56042;BME280;48756;41.374;2.066;2024-02-21T05:27:47;102026.41;;;11.68;85.26
56042;BME280;48756;41.374;2.066;2024-02-21T05:30:13;102017.69;;;11.61;85.90
56042;BME280;48756;41.374;2.066;2024-02-21T05:32:38;102012.38;;;11.52;86.35
56042;BME280;48756;41.374;2.066;2024-02-21T05:35:04;102006.34;;;11.56;86.57
56042;BME280;48756;41.374;2.066;2024-02-21T05:37:29;102010.75;;;11.71;86.00
56042;BME280;48756;41.374;2.066;2024-02-21T05:39:54;102007.28;;;11.71;86.76
56042;BME280;48756;41.374;2.066;2024-02-21T05:42:20;102000.25;;;11.60;85.13
56042;BME280;48756;41.374;2.066;2024-02-21T05:44:45;101993.31;;;11.64;87.21
56042;BME280;48756;41.374;2.066;2024-02-21T05:47:10;101983.03;;;11.81;85.85
56042;BME280;48756;41.374;2.066;2024-02-21T05:49:40;101971.72;;;11.85;86.27
56042;BME280;48756;41.374;2.066;2024-02-21T05:52:05;101976.06;;;11.83;85.94
56042;BME280;48756;41.374;2.066;2024-02-21T05:54:31;101972.34;;;11.53;85.99
56042;BME280;48756;41.374;2.066;2024-02-21T05:56:56;101978.50;;;11.61;87.59
56042;BME280;48756;41.374;2.066;2024-02-21T05:59:22;101977.56;;;11.53;86.42
56042;BME280;48756;41.374;2.066;2024-02-21T06:01:54;101969.69;;;11.43;86.43
56042;BME280;48756;41.374;2.066;2024-02-21T06:04:21;101961.88;;;11.46;87.28
56042;BME280;48756;41.374;2.066;2024-02-21T06:06:46;101968.06;;;11.57;85.89
56042;BME280;48756;41.374;2.066;2024-02-21T06:09:11;101958.41;;;11.48;86.20
56042;BME280;48756;41.374;2.066;2024-02-21T06:11:37;101967.22;;;11.65;84.41
56042;BME280;48756;41.374;2.066;2024-02-21T06:14:02;101969.78;;;11.56;84.74
56042;BME280;48756;41.374;2.066;2024-02-21T06:16:28;101961.72;;;11.23;86.57
56042;BME280;48756;41.374;2.066;2024-02-21T06:18:53;101973.06;;;11.31;87.21
56042;BME280;48756;41.374;2.066;2024-02-21T06:21:18;101978.38;;;11.42;85.68
56042;BME280;48756;41.374;2.066;2024-02-21T06:23:44;101973.97;;;11.33;86.41
56042;BME280;48756;41.374;2.066;2024-02-21T06:26:09;101966.03;;;11.19;85.74
56042;BME280;48756;41.374;2.066;2024-02-21T06:28:35;101966.81;;;11.08;87.28
56042;BME280;48756;41.374;2.066;2024-02-21T06:31:00;101979.13;;;11.24;87.94
56042;BME280;48756;41.374;2.066;2024-02-21T06:33:25;101980.84;;;11.20;88.56
56042;BME280;48756;41.374;2.066;2024-02-21T06:35:51;101991.31;;;11.28;89.38
56042;BME280;48756;41.374;2.066;2024-02-21T06:38:18;101995.56;;;11.11;89.03
56042;BME280;48756;41.374;2.066;2024-02-21T06:40:43;102007.78;;;11.21;89.16
56042;BME280;48756;41.374;2.066;2024-02-21T06:43:14;102006.34;;;11.55;89.51
56042;BME280;48756;41.374;2.066;2024-02-21T06:45:39;102011.59;;;11.62;88.71
56042;BME280;48756;41.374;2.066;2024-02-21T06:48:05;102009.03;;;11.76;86.64
56042;BME280;48756;41.374;2.066;2024-02-21T06:50:33;102016.81;;;11.61;88.58
56042;BME280;48756;41.374;2.066;2024-02-21T06:52:58;102012.66;;;11.89;86.35
56042;BME280;48756;41.374;2.066;2024-02-21T06:55:24;102009.16;;;11.87;86.59
56042;BME280;48756;41.374;2.066;2024-02-21T06:57:49;102007.50;;;12.03;85.95
56042;BME280;48756;41.374;2.066;2024-02-21T07:00:15;102013.63;;;12.11;84.75
56042;BME280;48756;41.374;2.066;2024-02-21T07:02:40;102011.91;;;12.20;83.98
56042;BME280;48756;41.374;2.066;2024-02-21T07:05:06;102006.69;;;12.16;85.13
56042;BME280;48756;41.374;2.066;2024-02-21T07:07:31;102004.84;;;11.95;87.27
56042;BME280;48756;41.374;2.066;2024-02-21T07:09:56;101997.09;;;12.12;85.65
56042;BME280;48756;41.374;2.066;2024-02-21T07:12:22;101999.69;;;12.07;84.75
56042;BME280;48756;41.374;2.066;2024-02-21T07:14:47;101995.22;;;11.86;85.82
56042;BME280;48756;41.374;2.066;2024-02-21T07:17:12;102010.16;;;12.16;85.44
56042;BME280;48756;41.374;2.066;2024-02-21T07:19:38;102010.25;;;12.35;83.74
56042;BME280;48756;41.374;2.066;2024-02-21T07:22:03;102005.91;;;12.44;83.62
56042;BME280;48756;41.374;2.066;2024-02-21T07:24:31;102016.41;;;12.49;82.47
56042;BME280;48756;41.374;2.066;2024-02-21T07:26:56;102008.63;;;12.70;82.60
56042;BME280;48756;41.374;2.066;2024-02-21T07:29:24;102012.97;;;12.73;82.55
56042;BME280;48756;41.374;2.066;2024-02-21T07:31:50;102007.78;;;12.93;81.20
56042;BME280;48756;41.374;2.066;2024-02-21T07:34:16;102020.84;;;12.80;82.07
56042;BME280;48756;41.374;2.066;2024-02-21T07:36:42;102015.56;;;12.65;81.70
56042;BME280;48756;41.374;2.066;2024-02-21T07:39:10;102014.72;;;12.71;81.92
56042;BME280;48756;41.374;2.066;2024-02-21T07:41:36;102018.22;;;12.77;81.60
56042;BME280;48756;41.374;2.066;2024-02-21T07:44:01;102017.34;;;12.87;82.29
56042;BME280;48756;41.374;2.066;2024-02-21T07:46:28;102024.34;;;13.07;80.95
56042;BME280;48756;41.374;2.066;2024-02-21T07:48:53;102023.44;;;12.88;79.65
56042;BME280;48756;41.374;2.066;2024-02-21T07:51:19;102015.69;;;13.20;80.07
56042;BME280;48756;41.374;2.066;2024-02-21T07:53:44;102013.91;;;13.57;78.85
56042;BME280;48756;41.374;2.066;2024-02-21T07:56:11;102020.88;;;13.55;78.75
56042;BME280;48756;41.374;2.066;2024-02-21T07:58:36;102012.09;;;13.90;78.07
56042;BME280;48756;41.374;2.066;2024-02-21T08:01:01;102015.59;;;13.93;77.51
56042;BME280;48756;41.374;2.066;2024-02-21T08:03:26;102023.41;;;13.99;75.81
56042;BME280;48756;41.374;2.066;2024-02-21T08:05:52;102030.38;;;14.13;77.94
56042;BME280;48756;41.374;2.066;2024-02-21T08:08:17;102038.28;;;13.94;75.66
56042;BME280;48756;41.374;2.066;2024-02-21T08:10:45;102044.25;;;14.37;74.83
56042;BME280;48756;41.374;2.066;2024-02-21T08:13:10;102049.63;;;14.05;75.52
56042;BME280;48756;41.374;2.066;2024-02-21T08:15:35;102052.97;;;14.43;72.96
56042;BME280;48756;41.374;2.066;2024-02-21T08:18:04;102052.19;;;14.27;73.14
56042;BME280;48756;41.374;2.066;2024-02-21T08:20:31;102053.78;;;14.66;71.18
56042;BME280;48756;41.374;2.066;2024-02-21T08:22:57;102053.78;;;14.64;72.26
56042;BME280;48756;41.374;2.066;2024-02-21T08:25:22;102051.91;;;14.86;72.47
56042;BME280;48756;41.374;2.066;2024-02-21T08:27:47;102059.00;;;14.72;72.71
56042;BME280;48756;41.374;2.066;2024-02-21T08:30:16;102055.19;;;15.22;70.43
56042;BME280;48756;41.374;2.066;2024-02-21T08:32:47;102054.72;;;15.75;68.77
56042;BME280;48756;41.374;2.066;2024-02-21T08:35:12;102054.81;;;15.69;68.07
56042;BME280;48756;41.374;2.066;2024-02-21T08:37:38;102058.91;;;15.96;67.08
56042;BME280;48756;41.374;2.066;2024-02-21T08:40:06;102052.22;;;15.65;66.13
56042;BME280;48756;41.374;2.066;2024-02-21T08:42:33;102057.09;;;14.98;69.28
56042;BME280;48756;41.374;2.066;2024-02-21T08:44:59;102058.19;;;14.58;72.44
56042;BME280;48756;41.374;2.066;2024-02-21T08:47:24;102057.31;;;14.60;71.43
56042;BME280;48756;41.374;2.066;2024-02-21T08:49:49;102052.75;;;14.90;70.75
56042;BME280;48756;41.374;2.066;2024-02-21T08:52:15;102049.06;;;15.21;68.98
56042;BME280;48756;41.374;2.066;2024-02-21T08:54:40;102044.72;;;15.14;69.30
56042;BME280;48756;41.374;2.066;2024-02-21T08:57:05;102041.09;;;15.30;69.04
56042;BME280;48756;41.374;2.066;2024-02-21T08:59:31;102039.28;;;15.40;68.46
56042;BME280;48756;41.374;2.066;2024-02-21T09:01:57;102038.44;;;15.32;69.30
56042;BME280;48756;41.374;2.066;2024-02-21T09:04:22;102035.78;;;15.40;69.58
56042;BME280;48756;41.374;2.066;2024-02-21T09:06:47;102024.56;;;15.19;70.40
56042;BME280;48756;41.374;2.066;2024-02-21T09:09:13;102021.09;;;15.17;69.43
56042;BME280;48756;41.374;2.066;2024-02-21T09:11:38;102027.88;;;15.41;68.88
56042;BME280;48756;41.374;2.066;2024-02-21T09:14:05;102035.69;;;15.49;67.36
56042;BME280;48756;41.374;2.066;2024-02-21T09:16:31;102026.72;;;15.73;67.27
56042;BME280;48756;41.374;2.066;2024-02-21T09:18:56;102019.59;;;15.85;65.45
56042;BME280;48756;41.374;2.066;2024-02-21T09:21:22;102019.75;;;15.70;67.54
56042;BME280;48756;41.374;2.066;2024-02-21T09:23:48;102017.19;;;15.61;68.69
56042;BME280;48756;41.374;2.066;2024-02-21T09:26:13;102007.03;;;16.12;66.42
56042;BME280;48756;41.374;2.066;2024-02-21T09:28:41;102010.34;;;16.26;65.29
56042;BME280;48756;41.374;2.066;2024-02-21T09:31:06;102002.81;;;16.65;63.95
56042;BME280;48756;41.374;2.066;2024-02-21T09:33:32;102006.13;;;16.14;65.38
56042;BME280;48756;41.374;2.066;2024-02-21T09:35:57;101998.88;;;16.33;65.26
56042;BME280;48756;41.374;2.066;2024-02-21T09:38:22;101995.16;;;16.46;65.56
56042;BME280;48756;41.374;2.066;2024-02-21T09:40:52;102002.94;;;15.83;67.49
56042;BME280;48756;41.374;2.066;2024-02-21T09:43:21;101993.00;;;16.11;67.71
56042;BME280;48756;41.374;2.066;2024-02-21T09:45:46;102000.00;;;16.12;66.86
56042;BME280;48756;41.374;2.066;2024-02-21T09:48:25;101989.81;;;16.54;64.54
56042;BME280;48756;41.374;2.066;2024-02-21T09:50:51;101990.41;;;16.74;65.57
56042;BME280;48756;41.374;2.066;2024-02-21T09:53:20;101978.63;;;17.00;63.26
56042;BME280;48756;41.374;2.066;2024-02-21T09:55:47;101982.28;;;16.90;63.28
56042;BME280;48756;41.374;2.066;2024-02-21T09:58:13;101980.41;;;16.98;63.20
56042;BME280;48756;41.374;2.066;2024-02-21T10:00:39;101988.66;;;16.76;62.96
56042;BME280;48756;41.374;2.066;2024-02-21T10:03:04;101985.69;;;16.96;63.26
56042;BME280;48756;41.374;2.066;2024-02-21T10:05:34;101982.13;;;17.00;63.40
56042;BME280;48756;41.374;2.066;2024-02-21T10:08:00;101989.66;;;17.23;62.87
56042;BME280;48756;41.374;2.066;2024-02-21T10:10:26;101978.47;;;17.58;60.84
56042;BME280;48756;41.374;2.066;2024-02-21T10:12:53;101978.47;;;17.58;61.84
56042;BME280;48756;41.374;2.066;2024-02-21T10:15:21;101985.97;;;17.81;63.78
56042;BME280;48756;41.374;2.066;2024-02-21T10:17:47;101987.63;;;17.85;62.79
56042;BME280;48756;41.374;2.066;2024-02-21T10:20:15;101981.41;;;17.41;63.60
56042;BME280;48756;41.374;2.066;2024-02-21T10:22:41;101979.47;;;17.51;64.04
56042;BME280;48756;41.374;2.066;2024-02-21T10:25:07;101975.47;;;17.78;63.90
56042;BME280;48756;41.374;2.066;2024-02-21T10:27:33;101968.66;;;17.68;62.01
56042;BME280;48756;41.374;2.066;2024-02-21T10:29:58;101970.06;;;17.36;63.98
56042;BME280;48756;41.374;2.066;2024-02-21T10:32:23;101963.09;;;17.82;62.79
56042;BME280;48756;41.374;2.066;2024-02-21T10:35:00;101959.50;;;18.27;60.40
56042;BME280;48756;41.374;2.066;2024-02-21T10:37:28;101956.78;;;18.30;61.14
56042;BME280;48756;41.374;2.066;2024-02-21T10:39:53;101955.25;;;18.22;62.80
56042;BME280;48756;41.374;2.066;2024-02-21T10:42:18;101959.63;;;18.61;60.20
56042;BME280;48756;41.374;2.066;2024-02-21T10:44:46;101966.53;;;18.69;61.03
56042;BME280;48756;41.374;2.066;2024-02-21T10:47:16;101949.16;;;18.95;59.89
56042;BME280;48756;41.374;2.066;2024-02-21T10:49:46;101944.66;;;18.62;60.31
56042;BME280;48756;41.374;2.066;2024-02-21T10:54:58;101946.06;;;18.40;61.68
56042;BME280;48756;41.374;2.066;2024-02-21T10:57:25;101948.19;;;18.62;62.76
56042;BME280;48756;41.374;2.066;2024-02-21T10:59:52;101948.38;;;18.53;60.82
56042;BME280;48756;41.374;2.066;2024-02-21T11:02:18;101936.31;;;18.82;57.52
56042;BME280;48756;41.374;2.066;2024-02-21T11:04:44;101930.47;;;18.67;57.26
56042;BME280;48756;41.374;2.066;2024-02-21T11:07:10;101938.81;;;18.86;54.58
56042;BME280;48756;41.374;2.066;2024-02-21T11:09:36;101935.84;;;18.98;52.25
56042;BME280;48756;41.374;2.066;2024-02-21T11:12:02;101942.97;;;19.31;51.78
56042;BME280;48756;41.374;2.066;2024-02-21T11:14:28;101938.72;;;19.23;52.98
56042;BME280;48756;41.374;2.066;2024-02-21T11:16:57;101932.25;;;19.03;53.03
56042;BME280;48756;41.374;2.066;2024-02-21T11:19:26;101920.84;;;19.01;51.99
56042;BME280;48756;41.374;2.066;2024-02-21T11:21:52;101914.84;;;18.94;53.29
56042;BME280;48756;41.374;2.066;2024-02-21T11:24:27;101904.16;;;19.33;51.88
56042;BME280;48756;41.374;2.066;2024-02-21T11:26:54;101904.75;;;19.10;52.20
56042;BME280;48756;41.374;2.066;2024-02-21T11:29:25;101893.16;;;19.15;51.35
56042;BME280;48756;41.374;2.066;2024-02-21T11:31:51;101887.81;;;19.17;49.58
56042;BME280;48756;41.374;2.066;2024-02-21T11:34:17;101883.94;;;18.62;51.48
56042;BME280;48756;41.374;2.066;2024-02-21T11:36:52;101879.94;;;18.83;50.67
56042;BME280;48756;41.374;2.066;2024-02-21T11:39:24;101873.91;;;18.41;52.12
56042;BME280;48756;41.374;2.066;2024-02-21T11:42:02;101873.63;;;18.88;51.20
56042;BME280;48756;41.374;2.066;2024-02-21T11:44:30;101868.38;;;18.87;50.02
56042;BME280;48756;41.374;2.066;2024-02-21T11:46:58;101861.78;;;18.69;50.47
56042;BME280;48756;41.374;2.066;2024-02-21T11:49:29;101856.81;;;18.91;50.24
56042;BME280;48756;41.374;2.066;2024-02-21T11:52:01;101850.78;;;18.50;52.25
56042;BME280;48756;41.374;2.066;2024-02-21T11:54:29;101847.59;;;18.38;50.87
56042;BME280;48756;41.374;2.066;2024-02-21T11:56:54;101844.81;;;18.79;49.25
56042;BME280;48756;41.374;2.066;2024-02-21T11:59:22;101840.38;;;18.44;49.77
56042;BME280;48756;41.374;2.066;2024-02-21T12:01:50;101839.31;;;18.51;51.17
56042;BME280;48756;41.374;2.066;2024-02-21T12:04:17;101831.88;;;19.03;49.62
56042;BME280;48756;41.374;2.066;2024-02-21T12:06:44;101829.84;;;19.12;49.37
56042;BME280;48756;41.374;2.066;2024-02-21T12:09:13;101833.88;;;19.25;48.50
56042;BME280;48756;41.374;2.066;2024-02-21T12:11:38;101829.41;;;19.27;48.90
56042;BME280;48756;41.374;2.066;2024-02-21T12:14:04;101825.38;;;19.14;48.86
56042;BME280;48756;41.374;2.066;2024-02-21T12:16:33;101820.28;;;19.70;47.30
56042;BME280;48756;41.374;2.066;2024-02-21T12:18:59;101815.53;;;19.50;48.45
56042;BME280;48756;41.374;2.066;2024-02-21T12:21:25;101817.25;;;19.20;50.15
56042;BME280;48756;41.374;2.066;2024-02-21T12:23:53;101823.22;;;18.96;49.69
56042;BME280;48756;41.374;2.066;2024-02-21T12:26:18;101807.19;;;19.04;50.07
56042;BME280;48756;41.374;2.066;2024-02-21T12:28:43;101803.75;;;19.00;49.99
56042;BME280;48756;41.374;2.066;2024-02-21T12:31:09;101810.44;;;18.08;52.57
56042;BME280;48756;41.374;2.066;2024-02-21T12:33:36;101808.69;;;18.81;51.09
56042;BME280;48756;41.374;2.066;2024-02-21T12:36:02;101793.88;;;18.74;50.18
56042;BME280;48756;41.374;2.066;2024-02-21T12:38:29;101795.78;;;18.33;53.35
56042;BME280;48756;41.374;2.066;2024-02-21T12:40:54;101788.03;;;18.61;52.83
56042;BME280;48756;41.374;2.066;2024-02-21T12:43:23;101786.69;;;18.45;52.65
56042;BME280;48756;41.374;2.066;2024-02-21T12:45:48;101789.28;;;18.82;51.25
56042;BME280;48756;41.374;2.066;2024-02-21T12:48:14;101786.47;;;18.53;53.18